Time;durP1;ratioP1;P1;durP2;ratioP2;P2;SDS_P1;SDS_P2;PMS_P1;PMS_P2;Temp;Humidity;BMP_temperature;BMP_pressure;BME280_temperature;BME280_humidity;BME280_pressure;Samples;Min_cycle;Max_cycle;Signal;HPM_P1;HPM_P2
2022/01/29 00:00:27;;;;;;;62.60;32.05;;;;;;;4.94;94.16;102937.56;4704650;30;20053;-81
2022/01/29 00:02:53;;;;;;;60.50;33.10;;;;;;;4.93;94.26;102935.78;4719076;30;20049;-80
2022/01/29 00:05:18;;;;;;;57.08;30.50;;;;;;;4.98;93.58;102913.22;4733349;30;20091;-80
2022/01/29 00:07:44;;;;;;;65.45;31.63;;;;;;;5.02;93.60;102911.56;4718920;30;20350;-80
2022/01/29 00:10:11;;;;;;;73.25;32.78;;;;;;;4.96;93.98;102910.53;4704454;30;20055;-80
2022/01/29 00:12:37;;;;;;;53.20;30.23;;;;;;;5.02;93.92;102911.56;4732194;30;20144;-81
2022/01/29 00:15:03;;;;;;;64.07;32.35;;;;;;;4.99;94.23;102921.97;4733607;30;20119;-81
2022/01/29 00:17:29;;;;;;;56.30;28.15;;;;;;;5.00;94.31;102914.16;4703056;30;20036;-80
2022/01/29 00:19:55;;;;;;;42.42;24.85;;;;;;;5.16;93.14;102905.06;4718835;30;20484;-81
2022/01/29 00:22:21;;;;;;;52.92;27.10;;;;;;;5.07;93.79;102905.66;4715790;30;20336;-81
2022/01/29 00:24:46;;;;;;;61.38;34.78;;;;;;;5.07;93.78;102908.28;4730393;30;20049;-80
2022/01/29 00:27:12;;;;;;;60.45;28.88;;;;;;;5.07;93.83;102895.16;4715710;30;20041;-81
2022/01/29 00:29:40;;;;;;;60.78;34.03;;;;;;;5.06;94.58;102892.47;4716902;30;20103;-80
2022/01/29 00:32:07;;;;;;;46.97;26.17;;;;;;;5.12;93.88;102884.81;4716849;30;20055;-81
2022/01/29 00:34:33;;;;;;;52.95;28.23;;;;;;;5.09;94.00;102880.31;4725544;30;20052;-80
2022/01/29 00:36:58;;;;;;;64.97;37.65;;;;;;;5.08;94.07;102877.66;4733052;30;20051;-80
2022/01/29 00:39:24;;;;;;;61.03;31.63;;;;;;;5.13;93.67;102889.22;4718547;30;20028;-81
2022/01/29 00:41:49;;;;;;;60.22;31.92;;;;;;;5.09;94.10;102889.94;4703906;30;20114;-80
2022/01/29 00:44:15;;;;;;;56.83;33.50;;;;;;;5.08;94.02;102886.41;4718433;30;20068;-80
2022/01/29 00:46:41;;;;;;;56.28;32.17;;;;;;;5.11;94.30;102886.53;4732626;30;20490;-80
2022/01/29 00:49:12;;;;;;;60.33;33.35;;;;;;;5.10;93.99;102874.25;4703747;30;20044;-81
2022/01/29 00:51:38;;;;;;;63.28;31.88;;;;;;;5.12;94.04;102880.44;4729955;30;20045;-80
2022/01/29 00:54:04;;;;;;;56.92;30.13;;;;;;;5.11;94.08;102875.13;4716937;30;20399;-81
2022/01/29 00:56:29;;;;;;;57.10;31.30;;;;;;;5.11;94.12;102870.75;4715606;30;20065;-81
2022/01/29 00:58:55;;;;;;;63.10;34.90;;;;;;;5.12;94.15;102863.81;4715387;30;20054;-81
2022/01/29 01:01:21;;;;;;;54.75;29.52;;;;;;;5.14;94.22;102857.75;4700850;30;20049;-80
2022/01/29 01:03:46;;;;;;;62.78;35.78;;;;;;;5.14;94.13;102844.63;4715211;30;20067;-80
2022/01/29 01:06:12;;;;;;;53.15;28.48;;;;;;;5.19;94.22;102842.13;4700705;30;20067;-80
2022/01/29 01:08:37;;;;;;;58.70;30.90;;;;;;;5.18;94.54;102843.84;4701020;30;20180;-80
2022/01/29 01:11:04;;;;;;;64.90;31.77;;;;;;;5.18;94.57;102835.97;4714845;30;20033;-80
2022/01/29 01:13:33;;;;;;;57.60;31.02;;;;;;;5.19;94.55;102828.97;4686238;30;20049;-80
2022/01/29 01:16:00;;;;;;;59.72;31.35;;;;;;;5.17;94.59;102823.69;4720786;30;20040;-80
2022/01/29 01:18:25;;;;;;;60.25;32.65;;;;;;;5.15;94.96;102817.50;4733556;30;20046;-80
2022/01/29 01:20:51;;;;;;;68.18;32.55;;;;;;;5.17;94.80;102805.31;4717969;30;20447;-80
2022/01/29 01:23:17;;;;;;;58.88;28.50;;;;;;;5.19;95.11;102797.47;4717411;30;20137;-80
2022/01/29 01:25:43;;;;;;;67.75;33.25;;;;;;;5.16;95.83;102797.38;4732187;30;20094;-80
2022/01/29 01:28:09;;;;;;;62.55;31.13;;;;;;;5.14;95.92;102801.69;4731979;30;20040;-80
2022/01/29 01:30:36;;;;;;;66.45;35.00;;;;;;;5.12;95.90;102785.91;4703250;30;20099;-80
2022/01/29 01:33:03;;;;;;;56.25;34.25;;;;;;;5.16;95.88;102784.25;4717494;30;20076;-80
2022/01/29 01:35:35;;;;;;;47.00;28.50;;;;;;;5.18;95.72;102770.31;4732125;30;20113;-80
2022/01/29 01:40:28;;;;;;;60.80;33.08;;;;;;;5.11;96.44;102770.97;4717526;30;20460;-80
2022/01/29 01:42:59;;;;;;;65.78;33.17;;;;;;;5.14;96.61;102780.66;4717678;30;20131;-80
2022/01/29 01:45:24;;;;;;;;;;;;;;;5.17;96.19;102771.16;4733585;30;20211;-80
2022/01/29 01:47:50;;;;;;;67.18;32.33;;;;;;;5.16;96.45;102765.84;4717414;30;20009;-80
2022/01/29 01:50:16;;;;;;;83.93;39.10;;;;;;;5.07;97.36;102761.22;4702974;30;20048;-80
2022/01/29 01:52:42;;;;;;;64.18;33.10;;;;;;;5.10;97.24;102756.06;4733195;30;20643;-80
2022/01/29 01:55:08;;;;;;;55.15;29.58;;;;;;;5.08;97.89;102755.13;4703053;30;20120;-81
2022/01/29 01:57:33;;;;;;;58.28;29.13;;;;;;;5.14;97.45;102759.66;4731802;30;20096;-80
2022/01/29 01:59:59;;;;;;;57.00;34.08;;;;;;;5.14;98.37;102757.03;4716946;30;20045;-80
2022/01/29 02:02:24;;;;;;;65.32;34.80;;;;;;;5.06;98.87;102754.16;4731718;30;20069;-81
2022/01/29 02:04:50;;;;;;;63.58;35.08;;;;;;;5.00;99.55;102748.75;4716917;30;20067;-80
2022/01/29 02:07:18;;;;;;;67.00;35.65;;;;;;;4.99;99.57;102743.44;4731625;30;20040;-80
2022/01/29 02:09:43;;;;;;;53.47;28.30;;;;;;;5.02;99.85;102735.63;4731852;30;20082;-80
2022/01/29 02:12:10;;;;;;;62.75;34.95;;;;;;;4.98;99.49;102739.91;4702501;30;20041;-80
2022/01/29 02:14:38;;;;;;;58.78;35.58;;;;;;;4.96;99.77;102738.97;4731614;30;20145;-80
2022/01/29 02:17:04;;;;;;;57.85;32.67;;;;;;;4.96;100.00;102734.59;4712625;30;20359;-81
2022/01/29 02:19:30;;;;;;;64.30;35.63;;;;;;;4.95;100.00;102734.59;4702789;30;20049;-81
2022/01/29 02:21:57;;;;;;;55.17;31.42;;;;;;;4.97;100.00;102732.91;4731403;30;20043;-80
2022/01/29 02:24:23;;;;;;;58.75;34.08;;;;;;;4.96;100.00;102731.09;4731920;30;20146;-82
2022/01/29 02:26:49;;;;;;;60.88;35.05;;;;;;;4.93;100.00;102728.38;4731681;30;20119;-81
2022/01/29 02:29:15;;;;;;;56.70;31.40;;;;;;;4.96;100.00;102736.34;4717462;30;20193;-82
2022/01/29 02:31:53;;;;;;;50.10;28.75;;;;;;;4.89;100.00;102722.13;4717588;30;20522;-82
2022/01/29 02:34:19;;;;;;;63.22;35.70;;;;;;;4.88;100.00;102720.34;4716643;30;20044;-82
2022/01/29 02:36:46;;;;;;;54.45;33.15;;;;;;;4.90;100.00;102723.03;4717148;30;20113;-82
2022/01/29 02:39:12;;;;;;;60.60;34.20;;;;;;;4.87;100.00;102709.78;4717225;30;20040;-82
2022/01/29 02:41:41;;;;;;;54.50;30.10;;;;;;;4.91;100.00;102706.44;4731892;30;20057;-83
2022/01/29 02:44:08;;;;;;;57.33;32.65;;;;;;;4.86;100.00;102705.41;4717676;30;20119;-83
2022/01/29 02:49:21;;;;;;;58.42;33.38;;;;;;;4.88;100.00;102682.72;4732544;30;20438;-83
2022/01/29 02:51:55;;;;;;;54.05;31.02;;;;;;;5.01;100.00;102703.25;4728961;30;20385;-85
2022/01/29 02:54:21;;;;;;;55.63;32.30;;;;;;;4.94;100.00;102699.53;4700151;30;20077;-84
2022/01/29 02:56:47;;;;;;;58.30;33.10;;;;;;;4.90;100.00;102692.41;4700254;30;20107;-84
2022/01/29 02:59:12;;;;;;;58.80;36.17;;;;;;;4.90;100.00;102696.78;4714213;30;20064;-84
2022/01/29 03:01:38;;;;;;;57.22;32.08;;;;;;;4.90;100.00;102700.31;4715758;30;20112;-85
2022/01/29 03:04:05;;;;;;;62.55;33.08;;;;;;;4.91;100.00;102695.94;4685475;30;20454;-84
2022/01/29 03:06:31;;;;;;;58.58;32.95;;;;;;;4.89;100.00;102687.13;4699955;30;20591;-85
2022/01/29 03:08:57;;;;;;;59.33;32.95;;;;;;;4.91;100.00;102686.31;4699917;30;20387;-84
2022/01/29 03:11:22;;;;;;;56.03;31.70;;;;;;;4.89;100.00;102681.84;4699629;30;20045;-85
2022/01/29 03:13:51;;;;;;;53.50;31.98;;;;;;;4.93;100.00;102675.88;4714464;30;20037;-86
2022/01/29 03:16:18;;;;;;;52.33;30.67;;;;;;;4.97;100.00;102675.13;4714194;30;20120;-86
2022/01/29 03:18:44;;;;;;;56.85;30.23;;;;;;;4.91;100.00;102669.69;4699835;30;20471;-84
2022/01/29 03:21:12;;;;;;;59.00;32.97;;;;;;;4.93;100.00;102665.38;4685461;30;20069;-85
2022/01/29 03:23:38;;;;;;;64.40;36.97;;;;;;;4.95;100.00;102659.31;4700153;30;20053;-84
2022/01/29 03:26:04;;;;;;;46.47;29.70;;;;;;;4.93;100.00;102654.88;4714104;30;20197;-86
2022/01/29 03:28:30;;;;;;;54.97;31.52;;;;;;;4.95;100.00;102648.81;4714187;30;20124;-84
2022/01/29 03:30:57;;;;;;;53.90;30.55;;;;;;;5.01;100.00;102655.97;4713868;30;20096;-84
2022/01/29 03:33:23;;;;;;;59.80;33.75;;;;;;;5.02;100.00;102660.41;4716071;30;20056;-84
2022/01/29 03:35:50;;;;;;;62.28;35.00;;;;;;;4.98;100.00;102658.53;4731348;30;20044;-86
2022/01/29 03:38:16;;;;;;;60.05;29.45;;;;;;;5.07;100.00;102657.91;4716488;30;20525;-86
2022/01/29 03:40:43;;;;;;;62.15;36.22;;;;;;;4.99;100.00;102647.16;4716830;30;20136;-84
2022/01/29 03:43:12;;;;;;;62.35;34.72;;;;;;;4.95;100.00;102630.44;4716484;30;20459;-84
2022/01/29 03:45:37;;;;;;;67.70;36.90;;;;;;;5.03;100.00;102635.03;4718100;30;20131;-84
2022/01/29 03:48:06;;;;;;;68.68;39.50;;;;;;;4.99;100.00;102638.41;4719925;30;20565;-86
2022/01/29 03:50:32;;;;;;;55.00;31.08;;;;;;;5.03;100.00;102640.28;4732556;30;20219;-84
2022/01/29 03:52:57;;;;;;;73.07;35.92;;;;;;;4.99;100.00;102627.91;4719720;30;20525;-85
2022/01/29 03:55:22;;;;;;;67.75;35.92;;;;;;;5.02;100.00;102643.75;4705417;30;20071;-86
2022/01/29 03:57:48;;;;;;;53.83;30.10;;;;;;;5.06;100.00;102637.75;4719818;30;20076;-85
2022/01/29 04:00:14;;;;;;;69.20;39.05;;;;;;;5.04;100.00;102635.06;4705366;30;20028;-85
2022/01/29 04:02:40;;;;;;;63.72;33.70;;;;;;;5.05;100.00;102630.72;4719251;30;20066;-85
2022/01/29 04:05:06;;;;;;;68.63;35.92;;;;;;;5.04;100.00;102631.56;4704700;30;20076;-84
2022/01/29 04:07:31;;;;;;;79.32;39.80;;;;;;;5.07;100.00;102636.88;4719468;30;20509;-84
2022/01/29 04:09:59;;;;;;;70.55;38.45;;;;;;;5.08;100.00;102630.81;4733927;30;20381;-85
2022/01/29 04:12:26;;;;;;;60.72;34.40;;;;;;;5.14;100.00;102631.88;4719486;30;20048;-85
2022/01/29 04:14:54;;;;;;;66.00;34.58;;;;;;;5.14;100.00;102638.84;4718893;30;20497;-86
2022/01/29 04:17:19;;;;;;;67.13;34.50;;;;;;;5.17;100.00;102626.72;4704870;30;20098;-84
2022/01/29 04:19:45;;;;;;;64.65;33.60;;;;;;;5.18;100.00;102622.34;4719010;30;20045;-86
2022/01/29 04:22:10;;;;;;;62.45;33.97;;;;;;;5.17;100.00;102615.31;4704271;30;20047;-87
2022/01/29 04:24:36;;;;;;;69.10;38.00;;;;;;;5.22;100.00;102618.06;4704521;30;20131;-85
2022/01/29 04:27:04;;;;;;;61.35;34.05;;;;;;;5.20;100.00;102612.78;4704017;30;20071;-84
2022/01/29 04:29:39;;;;;;;53.70;29.75;;;;;;;5.28;100.00;102613.88;4718907;30;20110;-84
2022/01/29 04:32:11;;;;;;;64.78;33.75;;;;;;;5.28;100.00;102607.75;4705245;30;20044;-83
2022/01/29 04:34:36;;;;;;;;;;;;;;;5.32;100.00;102605.25;4705090;30;20036;-85
2022/01/29 04:37:02;;;;;;;66.15;37.38;;;;;;;5.30;100.00;102609.56;4732751;30;20541;-85
2022/01/29 04:39:27;;;;;;;63.72;34.30;;;;;;;5.33;100.00;102600.88;4718356;30;20144;-86
2022/01/29 04:41:53;;;;;;;71.10;34.42;;;;;;;5.35;100.00;102609.69;4733231;30;20099;-84
2022/01/29 04:44:18;;;;;;;63.25;35.10;;;;;;;5.35;100.00;102596.56;4732875;30;20081;-85
2022/01/29 04:46:44;;;;;;;66.18;38.15;;;;;;;5.38;100.00;102594.91;4718554;30;20144;-85
2022/01/29 04:49:10;;;;;;;60.65;31.60;;;;;;;5.40;100.00;102592.31;4733335;30;20044;-87
2022/01/29 04:51:35;;;;;;;60.38;34.97;;;;;;;5.43;100.00;102588.88;4702648;30;20105;-84
2022/01/29 04:54:01;;;;;;;72.00;38.78;;;;;;;5.46;100.00;102587.22;4718167;30;20044;-84
2022/01/29 04:56:27;;;;;;;70.53;34.90;;;;;;;5.46;100.00;102584.59;4718427;30;20272;-86
2022/01/29 04:58:52;;;;;;;65.53;36.55;;;;;;;5.51;100.00;102587.34;4717919;30;20565;-84
2022/01/29 05:01:18;;;;;;;59.83;30.27;;;;;;;5.50;100.00;102562.81;4718161;30;20048;-84
2022/01/29 05:03:43;;;;;;;51.85;29.60;;;;;;;5.54;100.00;102569.94;4703874;30;20087;-85
2022/01/29 05:06:10;;;;;;;68.88;36.83;;;;;;;5.57;100.00;102570.00;4717973;30;20397;-84
2022/01/29 05:08:39;;;;;;;64.13;35.33;;;;;;;5.59;100.00;102567.44;4703790;30;20041;-84
2022/01/29 05:11:06;;;;;;;69.20;39.20;;;;;;;5.59;100.00;102557.81;4715345;30;20127;-86
2022/01/29 05:13:34;;;;;;;60.53;33.00;;;;;;;5.63;100.00;102571.91;4700814;30;20088;-83
2022/01/29 05:27:12;;;;;;;78.00;39.63;;;;;;;5.71;100.00;102554.63;4726780;30;20410;-84
2022/01/29 05:29:38;;;;;;;67.10;38.92;;;;;;;5.73;100.00;102554.63;4707342;30;20139;-84
2022/01/29 05:32:09;;;;;;;70.32;34.85;;;;;;;5.79;100.00;102557.44;4717884;30;20048;-83
2022/01/29 05:34:35;;;;;;;60.22;34.38;;;;;;;5.78;100.00;102553.00;4717920;30;20056;-86
2022/01/29 05:37:02;;;;;;;79.15;43.42;;;;;;;5.83;100.00;102559.28;4703799;30;20124;-85
2022/01/29 05:39:28;;;;;;;62.50;35.95;;;;;;;5.85;100.00;102548.81;4718400;30;20076;-83
2022/01/29 05:41:54;;;;;;;81.60;40.25;;;;;;;5.85;100.00;102548.81;4732636;30;20060;-86
2022/01/29 05:44:19;;;;;;;68.68;36.63;;;;;;;5.88;100.00;102549.75;4717425;30;20131;-84
2022/01/29 05:46:45;;;;;;;82.18;41.92;;;;;;;5.86;100.00;102540.06;4717704;30;20050;-85
2022/01/29 05:49:10;;;;;;;76.05;42.70;;;;;;;5.91;100.00;102541.97;4702992;30;20497;-86
2022/01/29 05:51:36;;;;;;;70.30;41.70;;;;;;;5.95;100.00;102549.09;4714273;30;20041;-85
2022/01/29 05:54:02;;;;;;;80.10;42.92;;;;;;;5.94;100.00;102544.69;4715242;30;20447;-85
2022/01/29 05:56:29;;;;;;;78.95;42.70;;;;;;;5.97;100.00;102544.75;4686827;30;20033;-85
2022/01/29 05:58:54;;;;;;;75.13;41.92;;;;;;;5.97;100.00;102536.00;4714828;30;20041;-85
2022/01/29 06:01:20;;;;;;;71.18;38.42;;;;;;;5.96;100.00;102521.97;4701138;30;20049;-84
2022/01/29 06:03:46;;;;;;;78.15;45.67;;;;;;;6.02;100.00;102534.38;4715287;30;20490;-85
2022/01/29 06:06:12;;;;;;;74.50;41.83;;;;;;;6.06;100.00;102532.69;4700646;30;20057;-84
2022/01/29 06:08:38;;;;;;;75.05;42.55;;;;;;;6.07;100.00;102530.09;4714659;30;20549;-84
2022/01/29 06:11:03;;;;;;;75.88;41.30;;;;;;;6.08;100.00;102523.97;4714846;30;20343;-85
2022/01/29 06:13:29;;;;;;;75.20;43.50;;;;;;;6.14;100.00;102525.88;4700493;30;20048;-85
2022/01/29 06:15:54;;;;;;;69.85;39.42;;;;;;;6.18;100.00;102522.44;4700538;30;20517;-84
2022/01/29 06:18:22;;;;;;;70.38;39.65;;;;;;;6.16;100.00;102518.91;4714066;30;20045;-84
2022/01/29 06:20:52;;;;;;;74.22;41.80;;;;;;;6.20;100.00;102518.13;4700210;30;20150;-84
2022/01/29 06:23:23;;;;;;;76.38;46.70;;;;;;;6.19;100.00;102513.72;4700335;30;20049;-85
2022/01/29 06:25:49;;;;;;;75.38;41.83;;;;;;;6.24;100.00;102512.97;4700958;30;20049;-84
2022/01/29 06:28:15;;;;;;;64.68;41.05;;;;;;;6.30;100.00;102514.84;4714641;30;20406;-84
2022/01/29 06:30:40;;;;;;;70.10;39.00;;;;;;;6.28;100.00;102513.03;4699942;30;20111;-84
2022/01/29 06:33:12;;;;;;;77.50;46.40;;;;;;;6.31;100.00;102511.38;4700101;30;20073;-85
2022/01/29 06:35:39;;;;;;;67.75;41.10;;;;;;;6.32;100.00;102513.13;4716117;30;20045;-83
2022/01/29 06:38:06;;;;;;;65.90;39.08;;;;;;;6.33;100.00;102503.50;4714513;30;20041;-85
2022/01/29 06:40:32;;;;;;;73.35;42.75;;;;;;;6.37;100.00;102507.97;4700031;30;20098;-85
2022/01/29 06:42:57;;;;;;;62.70;38.95;;;;;;;6.39;100.00;102496.63;4699774;30;20081;-84
2022/01/29 06:45:23;;;;;;;68.80;42.70;;;;;;;6.43;100.00;102498.50;4699610;30;20041;-84
2022/01/29 06:47:49;;;;;;;62.92;36.35;;;;;;;6.45;100.00;102496.78;4699285;30;20149;-83
2022/01/29 06:50:15;;;;;;;64.22;41.33;;;;;;;6.48;100.00;102490.69;4699621;30;20546;-82
2022/01/29 06:52:40;;;;;;;62.42;39.60;;;;;;;6.52;100.00;102491.63;4716114;30;20055;-85
2022/01/29 06:55:06;;;;;;;55.38;35.05;;;;;;;6.52;100.00;102486.38;4702268;30;20143;-85
2022/01/29 06:57:32;;;;;;;54.72;35.95;;;;;;;6.54;100.00;102487.28;4708113;30;20063;-85
2022/01/29 06:59:57;;;;;;;59.70;38.92;;;;;;;6.55;100.00;102478.53;4684657;30;20462;-85
2022/01/29 07:02:23;;;;;;;62.92;39.28;;;;;;;6.61;100.00;102476.03;4699291;30;20052;-84
2022/01/29 07:04:48;;;;;;;58.17;35.63;;;;;;;6.64;100.00;102474.34;4699040;30;20049;-84
2022/01/29 07:07:14;;;;;;;55.22;36.58;;;;;;;6.73;100.00;102475.41;4713552;30;20463;-84
2022/01/29 07:09:39;;;;;;;59.45;37.72;;;;;;;6.69;100.00;102479.72;4692598;30;20045;-84
2022/01/29 07:12:10;;;;;;;59.28;34.70;;;;;;;6.70;100.00;102488.50;4716014;30;20052;-84
2022/01/29 07:14:39;;;;;;;52.23;35.10;;;;;;;6.75;100.00;102473.66;4703021;30;20155;-84
2022/01/29 07:17:13;;;;;;;57.63;36.53;;;;;;;6.73;100.00;102470.16;4716468;30;20056;-84
2022/01/29 07:19:39;;;;;;;56.80;33.60;;;;;;;6.75;100.00;102471.03;4716181;30;20037;-84
2022/01/29 07:22:05;;;;;;;52.97;31.98;;;;;;;6.78;100.00;102473.75;4719460;30;20359;-84
2022/01/29 07:24:32;;;;;;;55.00;37.35;;;;;;;6.77;100.00;102470.22;4719653;30;20043;-84
2022/01/29 07:26:58;;;;;;;53.22;35.97;;;;;;;6.77;100.00;102471.97;4719437;30;20040;-85
2022/01/29 07:29:23;;;;;;;63.58;37.42;;;;;;;6.78;100.00;102468.50;4719702;30;20067;-87
2022/01/29 07:31:49;;;;;;;59.58;37.65;;;;;;;6.76;100.00;102465.81;4734262;30;20454;-84
2022/01/29 07:34:14;;;;;;;52.90;32.80;;;;;;;6.78;100.00;102472.00;4719507;30;20486;-86
2022/01/29 07:36:40;;;;;;;55.95;34.53;;;;;;;6.78;100.00;102474.63;4734164;30;20495;-86
2022/01/29 07:39:05;;;;;;;51.45;33.35;;;;;;;6.78;100.00;102474.63;4704879;30;20032;-85
2022/01/29 07:41:31;;;;;;;57.83;41.13;;;;;;;6.80;100.00;102466.75;4719211;30;20059;-85
2022/01/29 07:43:58;;;;;;;57.97;36.35;;;;;;;6.83;100.00;102465.09;4705532;30;20037;-84
2022/01/29 07:46:24;;;;;;;54.58;36.20;;;;;;;6.83;100.00;102458.94;4704499;30;20082;-84
2022/01/29 07:48:49;;;;;;;55.53;36.90;;;;;;;6.82;100.00;102471.19;4733783;30;20057;-83
2022/01/29 07:51:15;;;;;;;62.17;36.25;;;;;;;6.87;100.00;102459.03;4704511;30;20056;-83
2022/01/29 07:53:40;;;;;;;52.28;35.47;;;;;;;6.88;100.00;102452.00;4719517;30;20041;-84
2022/01/29 07:56:06;;;;;;;49.92;33.40;;;;;;;6.89;100.00;102456.41;4719281;30;20501;-84
2022/01/29 07:58:31;;;;;;;45.63;29.52;;;;;;;6.93;100.00;102454.72;4719398;30;20048;-84
2022/01/29 08:00:57;;;;;;;52.20;38.28;;;;;;;6.93;100.00;102450.34;4719157;30;20052;-85
2022/01/29 08:03:22;;;;;;;57.90;35.05;;;;;;;6.95;100.00;102453.00;4719575;30;20049;-84
2022/01/29 08:05:48;;;;;;;63.08;39.00;;;;;;;6.94;100.00;102452.13;4719607;30;20460;-85
2022/01/29 08:08:13;;;;;;;57.65;36.17;;;;;;;6.91;100.00;102436.25;4704844;30;20049;-84
2022/01/29 08:10:39;;;;;;;49.90;34.15;;;;;;;6.93;100.00;102434.53;4733546;30;20443;-84
2022/01/29 08:13:04;;;;;;;55.17;33.67;;;;;;;6.97;100.00;102443.38;4733494;30;20045;-85
2022/01/29 08:15:30;;;;;;;46.45;32.10;;;;;;;7.00;100.00;102441.72;4734203;30;20061;-84
2022/01/29 08:17:56;;;;;;;52.05;35.67;;;;;;;7.00;100.00;102428.53;4719550;30;20056;-86
2022/01/29 08:20:21;;;;;;;46.53;30.88;;;;;;;7.06;100.00;102428.63;4719786;30;20052;-84
2022/01/29 08:22:48;;;;;;;54.13;35.33;;;;;;;7.03;100.00;102418.06;4734305;30;20059;-84
2022/01/29 08:25:14;;;;;;;50.60;34.58;;;;;;;7.04;100.00;102425.06;4719268;30;20090;-85
2022/01/29 08:27:40;;;;;;;53.65;33.28;;;;;;;7.07;100.00;102421.59;4734002;30;20045;-84
2022/01/29 08:30:06;;;;;;;49.65;32.35;;;;;;;7.07;100.00;102427.78;4701756;30;20067;-84
2022/01/29 08:32:32;;;;;;;48.65;33.70;;;;;;;7.08;100.00;102419.00;4715528;30;20458;-85
2022/01/29 08:34:57;;;;;;;50.67;35.47;;;;;;;7.11;100.00;102420.81;4701740;30;20120;-85
2022/01/29 08:37:23;;;;;;;52.05;35.55;;;;;;;7.10;100.00;102405.88;4716273;30;20494;-86
2022/01/29 08:39:49;;;;;;;45.42;32.17;;;;;;;7.23;100.00;102421.03;4716015;30;20068;-85
2022/01/29 08:42:15;;;;;;;45.85;32.22;;;;;;;7.21;100.00;102408.69;4716221;30;20584;-85
2022/01/29 08:44:42;;;;;;;46.15;29.58;;;;;;;7.23;100.00;102402.59;4716185;30;20099;-85
2022/01/29 08:47:08;;;;;;;47.10;34.70;;;;;;;7.25;100.00;102411.41;4715980;30;20434;-85
2022/01/29 08:49:34;;;;;;;48.50;30.95;;;;;;;7.32;100.00;102421.19;4715980;30;20040;-86
2022/01/29 08:51:59;;;;;;;45.47;32.03;;;;;;;7.32;100.00;102400.13;4724264;30;20119;-87
2022/01/29 08:54:25;;;;;;;45.10;33.55;;;;;;;7.34;100.00;102402.75;4715518;30;20051;-86
2022/01/29 08:56:50;;;;;;;46.55;33.53;;;;;;;7.40;100.00;102409.91;4715931;30;20045;-85
2022/01/29 08:59:16;;;;;;;50.67;33.90;;;;;;;7.33;100.00;102391.34;4686779;30;20428;-85
2022/01/29 09:01:41;;;;;;;45.83;32.47;;;;;;;7.41;100.00;102391.44;4715812;30;20040;-87
2022/01/29 09:04:08;;;;;;;44.70;31.20;;;;;;;7.47;100.00;102390.69;4686993;30;20446;-85
2022/01/29 09:06:34;;;;;;;40.78;30.17;;;;;;;7.48;100.00;102388.06;4700831;30;20132;-84
2022/01/29 09:09:00;;;;;;;45.15;30.63;;;;;;;7.49;100.00;102386.31;4716150;30;20140;-86
2022/01/29 09:11:25;;;;;;;44.08;28.60;;;;;;;7.58;100.00;102382.94;4701333;30;20110;-85
2022/01/29 09:13:51;;;;;;;42.40;30.33;;;;;;;7.59;100.00;102387.31;4723019;30;20044;-85
2022/01/29 09:16:17;;;;;;;44.10;27.60;;;;;;;7.60;100.00;102390.00;4725160;30;20048;-85
2022/01/29 09:18:42;;;;;;;42.30;30.70;;;;;;;7.63;100.00;102387.41;4722625;30;20068;-85
2022/01/29 09:21:08;;;;;;;41.13;27.10;;;;;;;7.67;100.00;102391.88;4718331;30;20087;-85
2022/01/29 09:23:33;;;;;;;35.53;31.65;;;;;;;7.71;100.00;102379.59;4712766;30;20045;-84
2022/01/29 09:26:01;;;;;;;38.05;30.45;;;;;;;7.70;100.00;102380.47;4692472;30;20135;-87
2022/01/29 09:28:27;;;;;;;40.70;32.05;;;;;;;7.77;100.00;102378.84;4730728;30;20084;-85
2022/01/29 09:30:52;;;;;;;42.15;29.00;;;;;;;7.72;100.00;102368.22;4732616;30;20490;-84
2022/01/29 09:33:18;;;;;;;43.80;32.25;;;;;;;7.79;100.00;102380.63;4717558;30;20056;-86
2022/01/29 09:35:44;;;;;;;38.50;31.33;;;;;;;7.82;100.00;102382.41;4700594;30;20074;-87
2022/01/29 09:38:12;;;;;;;38.88;30.02;;;;;;;7.81;100.00;102378.88;4716601;30;20498;-85
2022/01/29 09:40:40;;;;;;;41.42;27.15;;;;;;;7.88;100.00;102386.00;4703576;30;20086;-85
2022/01/29 09:43:08;;;;;;;37.03;28.33;;;;;;;7.92;100.00;102382.56;4717468;30;20036;-85
2022/01/29 09:45:34;;;;;;;31.90;25.25;;;;;;;7.96;100.00;102378.19;4700892;30;20052;-85
2022/01/29 09:48:02;;;;;;;41.17;24.88;;;;;;;7.95;100.00;102379.94;4701916;30;20049;-86
2022/01/29 09:50:39;;;;;;;31.23;25.27;;;;;;;7.98;100.00;102377.34;4710158;30;20045;-86
2022/01/29 09:53:06;;;;;;;29.45;24.17;;;;;;;8.00;100.00;102385.28;4698746;30;20041;-85
2022/01/29 09:55:32;;;;;;;36.58;25.00;;;;;;;8.03;100.00;102389.72;4724586;30;20415;-85
2022/01/29 09:57:59;;;;;;;39.63;21.70;;;;;;;8.06;100.00;102385.41;4724325;30;20060;-86
2022/01/29 10:00:25;;;;;;;33.22;21.67;;;;;;;8.03;100.00;102366.88;4716378;30;20203;-85
2022/01/29 10:03:09;;;;;;;31.42;21.40;;;;;;;8.08;100.00;102393.31;4702366;30;20037;-85
2022/01/29 10:05:42;;;;;;;26.75;20.48;;;;;;;8.10;100.00;102388.94;4731425;30;20092;-85
2022/01/29 10:08:08;;;;;;;30.05;20.60;;;;;;;8.10;100.00;102389.81;4711871;30;20529;-85
2022/01/29 10:10:45;;;;;;;31.27;22.30;;;;;;;8.16;100.00;102383.75;4719666;30;20043;-85
2022/01/29 10:13:31;;;;;;;27.42;20.02;;;;;;;8.18;100.00;102376.72;4727919;30;20080;-86
2022/01/29 10:16:08;;;;;;;23.33;17.25;;;;;;;8.21;99.87;102368.88;4711069;30;20036;-85
2022/01/29 10:18:35;;;;;;;25.95;16.75;;;;;;;8.27;99.74;102368.94;4708832;30;20143;-85
2022/01/29 10:21:25;;;;;;;25.80;18.95;;;;;;;8.29;99.95;102364.56;4701719;30;20162;-84
2022/01/29 10:24:10;;;;;;;21.15;14.80;;;;;;;8.32;99.37;102359.31;4730017;30;20060;-84
2022/01/29 10:26:41;;;;;;;23.58;15.57;;;;;;;8.37;99.59;102354.97;4728466;30;20045;-85
2022/01/29 10:29:16;;;;;;;18.08;13.63;;;;;;;8.48;98.82;102343.66;4708083;30;20085;-85
2022/01/29 10:32:02;;;;;;;18.45;14.10;;;;;;;8.60;98.52;102338.53;4711440;30;20041;-85
2022/01/29 10:34:30;;;;;;;19.02;13.45;;;;;;;8.60;97.67;102320.03;4685322;30;20045;-84
2022/01/29 10:37:19;;;;;;;17.77;12.73;;;;;;;8.63;97.33;102322.72;4708613;30;20045;-85
2022/01/29 10:39:59;;;;;;;15.63;11.60;;;;;;;8.64;97.15;102327.13;4699847;30;20048;-82
2022/01/29 10:42:32;;;;;;;13.48;10.75;;;;;;;8.70;96.63;102331.56;4712324;30;20044;-82
2022/01/29 10:45:05;;;;;;;15.52;10.82;;;;;;;8.77;95.93;102317.56;4708531;30;20102;-82
2022/01/29 10:47:51;;;;;;;14.73;11.18;;;;;;;8.79;96.02;102327.28;4728619;30;20044;-82
2022/01/29 10:50:16;;;;;;;15.15;12.02;;;;;;;8.79;95.78;102324.63;4707125;30;20048;-82
2022/01/29 10:52:45;;;;;;;15.93;11.63;;;;;;;8.82;95.59;102319.38;4700647;30;20512;-82
2022/01/29 10:55:11;;;;;;;15.82;11.20;;;;;;;8.83;95.66;102321.16;4694930;30;20045;-82
2022/01/29 10:57:44;;;;;;;11.50;9.75;;;;;;;8.90;94.92;102331.75;4712790;30;20051;-82
2022/01/29 11:00:16;;;;;;;9.90;7.50;;;;;;;8.96;93.19;102314.22;4721406;30;20050;-82
2022/01/29 11:02:42;;;;;;;13.73;10.02;;;;;;;8.94;93.57;102321.25;4715628;30;20240;-81
2022/01/29 11:05:08;;;;;;;11.75;7.97;;;;;;;8.98;93.48;102316.88;4709847;30;20088;-82
2022/01/29 11:07:35;;;;;;;13.50;7.25;;;;;;;8.99;92.97;102303.66;4725582;30;20079;-80
2022/01/29 11:10:05;;;;;;;9.38;6.47;;;;;;;9.07;92.21;102303.72;4731615;30;20514;-81
2022/01/29 11:12:31;;;;;;;9.05;5.70;;;;;;;9.11;91.67;102300.25;4722191;30;20049;-82
2022/01/29 11:14:59;;;;;;;7.32;5.07;;;;;;;9.12;91.89;102295.84;4716122;30;20040;-83
2022/01/29 11:17:26;;;;;;;7.55;5.00;;;;;;;9.12;91.52;102295.84;4730368;30;20186;-81
2022/01/29 11:19:52;;;;;;;7.50;3.75;;;;;;;9.26;90.56;102291.53;4730527;30;20041;-82
2022/01/29 11:22:27;;;;;;;7.57;4.38;;;;;;;9.26;90.04;102287.13;4714811;30;20059;-82
2022/01/29 11:25:16;;;;;;;6.80;4.43;;;;;;;9.30;89.23;102271.28;4728886;30;20377;-82
2022/01/29 11:27:42;;;;;;;8.75;3.97;;;;;;;9.38;89.48;102280.16;4710781;30;20062;-83